Time;durP1;ratioP1;P1;durP2;ratioP2;P2;SDS_P1;SDS_P2;PMS_P1;PMS_P2;Temp;Humidity;BMP_temperature;BMP_pressure;BME280_temperature;BME280_humidity;BME280_pressure;Samples;Min_cycle;Max_cycle;Signal;HPM_P1;HPM_P2
2023/06/06 00:01:51;;;;;;;12.05;6.80;;;;;;;;;;5048952;28;20031;-72
2023/06/06 00:04:17;;;;;;;13.80;8.23;;;;;;;;;;5048932;28;20032;-73
2023/06/06 00:06:44;;;;;;;13.35;8.13;;;;;;;;;;5048512;28;20029;-71
2023/06/06 00:09:10;;;;;;;14.80;8.90;;;;;;;;;;5048718;28;20382;-72
2023/06/06 00:11:39;;;;;;;11.02;6.30;;;;;;;;;;5049025;28;20078;-72
2023/06/06 00:14:06;;;;;;;15.10;8.35;;;;;;;;;;5030712;28;20094;-74
2023/06/06 00:16:32;;;;;;;14.70;8.90;;;;;;;;;;5048911;28;20040;-71
2023/06/06 00:18:59;;;;;;;11.15;7.32;;;;;;;;;;5048315;28;20041;-71
2023/06/06 00:21:27;;;;;;;10.25;5.70;;;;;;;;;;5048507;28;20033;-72
2023/06/06 00:23:56;;;;;;;11.65;6.35;;;;;;;;;;5031239;28;20156;-71
2023/06/06 00:26:22;;;;;;;12.27;5.97;;;;;;;;;;5047835;28;20486;-71
2023/06/06 00:28:48;;;;;;;9.57;5.78;;;;;;;;;;5048136;28;20032;-71
2023/06/06 00:31:14;;;;;;;10.73;6.18;;;;;;;;;;5049257;28;20122;-71
2023/06/06 00:33:40;;;;;;;8.80;4.97;;;;;;;;;;5049219;28;20096;-71
2023/06/06 00:36:06;;;;;;;12.40;6.75;;;;;;;;;;5049235;28;20017;-72
2023/06/06 00:38:32;;;;;;;11.90;6.93;;;;;;;;;;5049042;28;20033;-71
2023/06/06 00:40:58;;;;;;;8.63;5.65;;;;;;;;;;5048703;28;20029;-71
2023/06/06 00:43:24;;;;;;;12.32;6.15;;;;;;;;;;5048484;28;20033;-71
2023/06/06 00:45:52;;;;;;;16.33;8.65;;;;;;;;;;5048616;28;20115;-73
2023/06/06 00:48:20;;;;;;;12.85;6.82;;;;;;;;;;5048674;28;20474;-72
2023/06/06 00:50:47;;;;;;;14.25;8.70;;;;;;;;;;5048372;28;20053;-72
2023/06/06 00:53:13;;;;;;;13.23;7.25;;;;;;;;;;5048635;28;20043;-72
2023/06/06 00:55:41;;;;;;;9.93;4.53;;;;;;;;;;5048907;28;20063;-71
2023/06/06 00:58:08;;;;;;;15.43;8.88;;;;;;;;;;5046675;28;20112;-72
2023/06/06 01:00:36;;;;;;;14.32;9.35;;;;;;;;;;5049271;28;20052;-71
2023/06/06 01:03:03;;;;;;;12.45;7.18;;;;;;;;;;5048282;28;20064;-71
2023/06/06 01:05:30;;;;;;;15.13;8.82;;;;;;;;;;5048219;28;20105;-73
2023/06/06 01:07:56;;;;;;;13.02;6.72;;;;;;;;;;5048574;28;20039;-71
2023/06/06 01:10:23;;;;;;;11.27;6.80;;;;;;;;;;5048257;28;20029;-72
2023/06/06 01:13:07;;;;;;;12.00;9.23;;;;;;;;;;5048721;28;20037;-71
2023/06/06 01:15:48;;;;;;;15.98;9.45;;;;;;;;;;5047324;28;20048;-72
2023/06/06 01:18:14;;;;;;;14.85;6.18;;;;;;;;;;5048655;28;20036;-72
2023/06/06 01:20:41;;;;;;;15.38;9.48;;;;;;;;;;5048739;28;20083;-72
2023/06/06 01:23:10;;;;;;;17.40;6.38;;;;;;;;;;5040604;28;20032;-72
2023/06/06 01:25:37;;;;;;;13.60;6.80;;;;;;;;;;5048545;28;20478;-71
2023/06/06 01:28:04;;;;;;;12.90;7.25;;;;;;;;;;5048284;28;20246;-71
2023/06/06 01:30:32;;;;;;;13.00;6.85;;;;;;;;;;5052096;28;20029;-71
2023/06/06 01:33:16;;;;;;;14.43;7.53;;;;;;;;;;5052041;28;20037;-73
2023/06/06 01:35:59;;;;;;;14.50;6.90;;;;;;;;;;5052480;28;20057;-72
2023/06/06 01:38:27;;;;;;;11.35;7.00;;;;;;;;;;5052159;28;20083;-72
2023/06/06 01:40:55;;;;;;;15.02;6.30;;;;;;;;;;5052119;28;20029;-72
2023/06/06 01:43:22;;;;;;;13.30;9.38;;;;;;;;;;5051887;28;20025;-72
2023/06/06 01:45:48;;;;;;;19.65;10.45;;;;;;;;;;5050114;28;20028;-72
2023/06/06 01:48:15;;;;;;;11.50;7.03;;;;;;;;;;5051945;28;20024;-73
2023/06/06 01:50:41;;;;;;;11.38;7.28;;;;;;;;;;5050586;28;20049;-71
2023/06/06 01:53:08;;;;;;;10.07;5.57;;;;;;;;;;5051548;28;20036;-73
2023/06/06 01:55:36;;;;;;;18.85;9.88;;;;;;;;;;5034341;28;20032;-72
2023/06/06 01:58:03;;;;;;;15.35;7.18;;;;;;;;;;5051434;28;20640;-72
2023/06/06 02:00:29;;;;;;;11.13;6.53;;;;;;;;;;5051932;28;20043;-72
2023/06/06 02:02:55;;;;;;;18.05;9.60;;;;;;;;;;5050816;28;20103;-73
2023/06/06 02:05:21;;;;;;;12.93;7.57;;;;;;;;;;5051546;28;20061;-72
2023/06/06 02:07:49;;;;;;;18.38;9.70;;;;;;;;;;5052211;28;20444;-71
2023/06/06 02:10:16;;;;;;;16.95;9.82;;;;;;;;;;5051633;28;20080;-70
2023/06/06 02:12:42;;;;;;;16.50;8.30;;;;;;;;;;5051276;28;20043;-71
2023/06/06 02:15:09;;;;;;;15.20;9.52;;;;;;;;;;5033783;28;20017;-72
2023/06/06 02:17:35;;;;;;;12.82;7.43;;;;;;;;;;5033542;28;20025;-72
2023/06/06 02:20:01;;;;;;;18.65;8.13;;;;;;;;;;5051599;28;20171;-71
2023/06/06 02:22:30;;;;;;;11.20;6.93;;;;;;;;;;5051155;28;20025;-71
2023/06/06 02:24:56;;;;;;;14.20;8.13;;;;;;;;;;5050114;28;20108;-71
2023/06/06 02:27:23;;;;;;;14.05;7.45;;;;;;;;;;5050713;28;20029;-72
2023/06/06 02:29:49;;;;;;;17.95;9.13;;;;;;;;;;5049215;28;20420;-72
2023/06/06 02:32:15;;;;;;;15.95;8.55;;;;;;;;;;5050557;28;20021;-72
2023/06/06 02:34:42;;;;;;;16.02;9.38;;;;;;;;;;5051045;28;20032;-72
2023/06/06 02:37:08;;;;;;;16.55;10.05;;;;;;;;;;5050784;28;20483;-72
2023/06/06 02:39:35;;;;;;;12.52;6.47;;;;;;;;;;5050683;28;20108;-71
2023/06/06 02:42:01;;;;;;;16.70;10.00;;;;;;;;;;5050241;28;20390;-70
2023/06/06 02:44:27;;;;;;;15.10;10.35;;;;;;;;;;5051326;28;20150;-72
2023/06/06 02:46:54;;;;;;;12.73;8.50;;;;;;;;;;5037597;28;20029;-71
2023/06/06 02:49:20;;;;;;;19.15;10.15;;;;;;;;;;5050559;28;20045;-70
2023/06/06 02:51:46;;;;;;;15.52;9.88;;;;;;;;;;5049558;28;20155;-72
2023/06/06 02:54:13;;;;;;;20.30;7.95;;;;;;;;;;5032599;28;20044;-72
2023/06/06 02:56:40;;;;;;;13.57;8.57;;;;;;;;;;5032447;28;20032;-71
2023/06/06 02:59:09;;;;;;;11.70;8.10;;;;;;;;;;5047535;28;20036;-72
2023/06/06 03:01:36;;;;;;;17.55;9.52;;;;;;;;;;5047418;28;20033;-72
2023/06/06 03:04:03;;;;;;;14.93;9.68;;;;;;;;;;5050127;28;20036;-72
2023/06/06 03:06:29;;;;;;;14.82;9.77;;;;;;;;;;5049708;28;20383;-72
2023/06/06 03:08:57;;;;;;;16.33;7.38;;;;;;;;;;5049733;28;20032;-70
2023/06/06 03:11:25;;;;;;;13.95;8.63;;;;;;;;;;5036922;28;20028;-72
2023/06/06 03:13:51;;;;;;;13.60;9.05;;;;;;;;;;5049582;28;20563;-71
2023/06/06 03:16:17;;;;;;;14.82;9.63;;;;;;;;;;5031847;28;20434;-72
2023/06/06 03:18:47;;;;;;;18.75;7.68;;;;;;;;;;5049723;28;20486;-73
2023/06/06 03:21:14;;;;;;;12.00;7.03;;;;;;;;;;5049502;28;20037;-72
2023/06/06 03:23:40;;;;;;;10.80;5.38;;;;;;;;;;5049590;28;20044;-71
2023/06/06 03:26:06;;;;;;;13.55;8.68;;;;;;;;;;5048472;28;20028;-72
2023/06/06 03:28:32;;;;;;;15.32;9.93;;;;;;;;;;5049740;28;20021;-72
2023/06/06 03:30:58;;;;;;;14.63;6.82;;;;;;;;;;5049323;28;20033;-72
2023/06/06 03:33:24;;;;;;;19.98;10.32;;;;;;;;;;5031696;28;20048;-71
2023/06/06 03:35:50;;;;;;;16.30;8.60;;;;;;;;;;5049524;28;20037;-71
2023/06/06 03:38:17;;;;;;;12.20;5.40;;;;;;;;;;5049152;28;20036;-71
2023/06/06 03:40:43;;;;;;;12.23;6.75;;;;;;;;;;5031469;28;20037;-70
2023/06/06 03:43:09;;;;;;;18.58;11.18;;;;;;;;;;5049471;28;20560;-71
2023/06/06 03:45:35;;;;;;;16.02;10.90;;;;;;;;;;5049377;28;20021;-72
2023/06/06 03:48:01;;;;;;;14.07;8.40;;;;;;;;;;5036716;28;20087;-71
2023/06/06 03:50:27;;;;;;;13.65;8.23;;;;;;;;;;5048633;28;20057;-72
2023/06/06 03:52:53;;;;;;;12.32;5.70;;;;;;;;;;5048904;28;20475;-71
2023/06/06 03:55:19;;;;;;;16.42;7.38;;;;;;;;;;5046242;28;20024;-72
2023/06/06 03:57:45;;;;;;;13.70;7.15;;;;;;;;;;5047511;28;20053;-70
2023/06/06 04:00:13;;;;;;;17.13;8.52;;;;;;;;;;5048985;28;20482;-72
2023/06/06 04:02:39;;;;;;;19.77;9.77;;;;;;;;;;5048403;28;20474;-72
2023/06/06 04:05:05;;;;;;;17.42;8.88;;;;;;;;;;5030807;28;20074;-71
2023/06/06 04:07:32;;;;;;;14.85;8.98;;;;;;;;;;5048813;28;20112;-72
2023/06/06 04:09:58;;;;;;;12.70;8.57;;;;;;;;;;5037262;28;20075;-71
2023/06/06 04:12:24;;;;;;;15.55;9.25;;;;;;;;;;5047958;28;20386;-70
2023/06/06 04:14:50;;;;;;;11.98;6.15;;;;;;;;;;5048177;28;20029;-72
2023/06/06 04:17:16;;;;;;;14.65;9.13;;;;;;;;;;5048229;28;20104;-72
2023/06/06 04:19:42;;;;;;;16.23;8.93;;;;;;;;;;5049006;28;20029;-72
2023/06/06 04:22:09;;;;;;;17.58;6.80;;;;;;;;;;5048745;28;20021;-70
2023/06/06 04:24:35;;;;;;;14.32;8.90;;;;;;;;;;5047895;28;20047;-71
2023/06/06 04:27:04;;;;;;;13.48;6.90;;;;;;;;;;5046803;28;20029;-71
2023/06/06 04:29:33;;;;;;;15.00;7.15;;;;;;;;;;5048375;28;20766;-70
2023/06/06 04:32:00;;;;;;;21.08;9.23;;;;;;;;;;5047590;28;20036;-71
2023/06/06 04:34:29;;;;;;;10.77;5.85;;;;;;;;;;5048972;28;20156;-71
2023/06/06 04:37:03;;;;;;;15.50;8.32;;;;;;;;;;5047491;28;20025;-72
2023/06/06 04:39:33;;;;;;;14.23;9.10;;;;;;;;;;5049433;28;20029;-72
2023/06/06 04:41:59;;;;;;;15.27;7.82;;;;;;;;;;5049103;28;20033;-73
2023/06/06 04:44:26;;;;;;;14.45;8.52;;;;;;;;;;5048294;28;20053;-70
2023/06/06 04:46:52;;;;;;;11.00;6.03;;;;;;;;;;5047346;28;20033;-71
2023/06/06 04:49:21;;;;;;;12.82;7.25;;;;;;;;;;5048364;28;20041;-71
2023/06/06 04:51:47;;;;;;;14.95;9.02;;;;;;;;;;5046338;28;20122;-71
2023/06/06 04:54:13;;;;;;;13.20;7.97;;;;;;;;;;5047024;28;20478;-71
2023/06/06 04:56:40;;;;;;;14.48;5.10;;;;;;;;;;5047229;28;20033;-71
2023/06/06 04:59:06;;;;;;;11.75;7.70;;;;;;;;;;5043154;28;20029;-72
2023/06/06 05:01:36;;;;;;;15.52;8.27;;;;;;;;;;5048379;28;20025;-73
2023/06/06 05:04:05;;;;;;;17.95;8.93;;;;;;;;;;5048738;28;20036;-72
2023/06/06 05:06:33;;;;;;;13.60;6.13;;;;;;;;;;5051188;28;20461;-71
2023/06/06 05:09:00;;;;;;;13.65;7.70;;;;;;;;;;5052002;28;20021;-71
2023/06/06 05:11:26;;;;;;;11.75;4.78;;;;;;;;;;5054391;28;20021;-71
2023/06/06 05:13:53;;;;;;;13.52;8.02;;;;;;;;;;5051217;28;20486;-72
2023/06/06 05:16:19;;;;;;;11.13;6.90;;;;;;;;;;5051278;28;20060;-70
2023/06/06 05:18:45;;;;;;;17.58;6.70;;;;;;;;;;5050218;28;20029;-71
2023/06/06 05:21:11;;;;;;;16.15;6.60;;;;;;;;;;5051588;28;20059;-72
2023/06/06 05:23:37;;;;;;;15.27;7.70;;;;;;;;;;5051052;28;20029;-71
2023/06/06 05:26:03;;;;;;;16.02;6.18;;;;;;;;;;5037522;28;20047;-73
2023/06/06 05:28:29;;;;;;;14.77;5.85;;;;;;;;;;5050972;28;20039;-71
2023/06/06 05:31:00;;;;;;;18.25;8.55;;;;;;;;;;5051367;28;20479;-72
2023/06/06 05:33:26;;;;;;;;;;;;;;;;;;5051620;28;20041;-72
2023/06/06 05:35:55;;;;;;;14.63;6.45;;;;;;;;;;5052365;28;19985;-72
2023/06/06 05:38:21;;;;;;;12.57;5.75;;;;;;;;;;5051882;28;20040;-73
2023/06/06 05:40:48;;;;;;;13.73;8.38;;;;;;;;;;5049026;28;20045;-72
2023/06/06 05:43:15;;;;;;;10.65;5.93;;;;;;;;;;5051158;28;20032;-71
2023/06/06 05:45:41;;;;;;;11.93;6.15;;;;;;;;;;5050553;28;20154;-72
2023/06/06 05:48:07;;;;;;;15.25;7.95;;;;;;;;;;5051089;28;20112;-72
2023/06/06 05:50:34;;;;;;;14.88;8.02;;;;;;;;;;5051081;28;20049;-71
2023/06/06 05:53:02;;;;;;;10.90;5.80;;;;;;;;;;5052389;28;20065;-72
2023/06/06 05:55:30;;;;;;;14.85;7.82;;;;;;;;;;5050213;28;20462;-71
2023/06/06 05:57:56;;;;;;;13.27;5.88;;;;;;;;;;5050313;28;20025;-72
2023/06/06 06:00:26;;;;;;;15.20;8.00;;;;;;;;;;5051303;28;20433;-72
2023/06/06 06:02:53;;;;;;;13.00;6.35;;;;;;;;;;5051601;28;20033;-72
2023/06/06 06:05:22;;;;;;;14.27;6.57;;;;;;;;;;5051065;28;20028;-71
2023/06/06 06:07:49;;;;;;;16.30;7.43;;;;;;;;;;5051443;28;20145;-72
2023/06/06 06:10:16;;;;;;;9.55;5.40;;;;;;;;;;5051426;28;20025;-72
2023/06/06 06:12:45;;;;;;;12.48;6.03;;;;;;;;;;5033564;28;20124;-72
2023/06/06 06:15:11;;;;;;;14.93;7.80;;;;;;;;;;5049849;28;20029;-72
2023/06/06 06:17:37;;;;;;;11.82;5.70;;;;;;;;;;5050275;28;20100;-72
2023/06/06 06:20:08;;;;;;;13.80;6.53;;;;;;;;;;5050380;28;20033;-73
2023/06/06 06:22:35;;;;;;;11.38;5.93;;;;;;;;;;5050528;28;20029;-72
2023/06/06 06:25:01;;;;;;;12.80;6.00;;;;;;;;;;5050039;28;20109;-73
2023/06/06 06:27:27;;;;;;;9.40;5.00;;;;;;;;;;5050364;28;20029;-72
2023/06/06 06:29:53;;;;;;;10.25;4.07;;;;;;;;;;5049453;28;20378;-72
2023/06/06 06:32:19;;;;;;;13.65;8.02;;;;;;;;;;5050101;28;20040;-73
2023/06/06 06:34:45;;;;;;;13.48;7.20;;;;;;;;;;5036037;28;20095;-72
2023/06/06 06:37:11;;;;;;;9.27;3.17;;;;;;;;;;5050713;28;20029;-72
2023/06/06 06:39:37;;;;;;;15.07;6.00;;;;;;;;;;5050234;28;20025;-72
2023/06/06 06:42:03;;;;;;;12.65;4.93;;;;;;;;;;5050040;28;20025;-73
2023/06/06 06:44:29;;;;;;;12.15;6.60;;;;;;;;;;5032203;28;20048;-72
2023/06/06 06:46:55;;;;;;;13.98;4.50;;;;;;;;;;5049939;28;20029;-72
2023/06/06 06:49:21;;;;;;;11.50;7.30;;;;;;;;;;5049203;28;20052;-73
2023/06/06 06:51:48;;;;;;;11.95;6.05;;;;;;;;;;5049347;28;20498;-73
2023/06/06 06:54:15;;;;;;;9.68;6.18;;;;;;;;;;5049623;28;20096;-73
2023/06/06 06:56:42;;;;;;;9.57;5.28;;;;;;;;;;5049263;28;20063;-73
2023/06/06 06:59:13;;;;;;;7.80;3.50;;;;;;;;;;5049703;28;20032;-74
2023/06/06 07:01:40;;;;;;;13.23;5.72;;;;;;;;;;5036788;28;20144;-74
2023/06/06 07:04:07;;;;;;;9.25;4.47;;;;;;;;;;5049572;28;20498;-74
2023/06/06 07:06:33;;;;;;;16.15;7.18;;;;;;;;;;5049449;28;20103;-73
2023/06/06 07:09:00;;;;;;;12.75;6.20;;;;;;;;;;5048473;28;20382;-73
2023/06/06 07:11:27;;;;;;;10.18;4.35;;;;;;;;;;5049092;28;20031;-73
2023/06/06 07:13:53;;;;;;;9.60;4.65;;;;;;;;;;5049281;28;20124;-74
2023/06/06 07:16:22;;;;;;;8.57;4.68;;;;;;;;;;5049416;28;20050;-73
2023/06/06 07:18:50;;;;;;;11.43;4.63;;;;;;;;;;5048923;28;20027;-73
2023/06/06 07:21:16;;;;;;;10.40;5.47;;;;;;;;;;5049550;28;20039;-73
2023/06/06 07:23:42;;;;;;;9.35;5.60;;;;;;;;;;5050122;28;20029;-73
2023/06/06 07:26:08;;;;;;;13.50;6.30;;;;;;;;;;5048286;28;20107;-73
2023/06/06 07:28:34;;;;;;;12.93;4.35;;;;;;;;;;5050307;28;20028;-73
2023/06/06 07:31:00;;;;;;;9.43;4.40;;;;;;;;;;5051027;28;20043;-74
2023/06/06 07:33:26;;;;;;;9.00;4.30;;;;;;;;;;5049356;28;20059;-73
2023/06/06 07:35:52;;;;;;;9.85;3.53;;;;;;;;;;5049960;28;20025;-73
2023/06/06 07:38:19;;;;;;;9.68;3.92;;;;;;;;;;5029955;28;20406;-74
2023/06/06 07:40:45;;;;;;;11.80;6.15;;;;;;;;;;5038796;28;20029;-74
2023/06/06 07:43:11;;;;;;;6.60;3.45;;;;;;;;;;5048588;28;20522;-74
2023/06/06 07:45:37;;;;;;;7.80;4.60;;;;;;;;;;5049737;28;20402;-74
2023/06/06 07:48:04;;;;;;;9.07;3.20;;;;;;;;;;5049388;28;20490;-73
2023/06/06 07:50:30;;;;;;;10.05;5.25;;;;;;;;;;5049410;28;20071;-74
2023/06/06 07:52:56;;;;;;;6.82;3.00;;;;;;;;;;5048760;28;20479;-74
2023/06/06 07:55:24;;;;;;;9.13;4.15;;;;;;;;;;5049110;28;20035;-73
2023/06/06 07:57:51;;;;;;;9.07;3.40;;;;;;;;;;5043409;28;20032;-74
2023/06/06 08:00:17;;;;;;;11.98;5.63;;;;;;;;;;5049271;28;20104;-74
2023/06/06 08:02:43;;;;;;;6.43;3.08;;;;;;;;;;5050062;28;20029;-73
2023/06/06 08:05:10;;;;;;;6.80;3.15;;;;;;;;;;5050793;28;20028;-73
2023/06/06 08:07:38;;;;;;;8.85;4.20;;;;;;;;;;5050102;28;20491;-74
2023/06/06 08:10:06;;;;;;;6.90;3.40;;;;;;;;;;5051215;28;20028;-74
2023/06/06 08:12:32;;;;;;;8.45;4.18;;;;;;;;;;5049136;28;20033;-75
2023/06/06 08:14:58;;;;;;;12.52;5.60;;;;;;;;;;5042473;28;20025;-73
2023/06/06 08:17:24;;;;;;;9.05;4.15;;;;;;;;;;5047689;28;20059;-73
2023/06/06 08:19:50;;;;;;;15.02;6.63;;;;;;;;;;5039756;28;20061;-74
2023/06/06 08:22:16;;;;;;;8.55;4.28;;;;;;;;;;5046659;28;20041;-75
2023/06/06 08:24:42;;;;;;;7.82;3.58;;;;;;;;;;5049760;28;20025;-73
2023/06/06 08:27:08;;;;;;;9.90;5.47;;;;;;;;;;5049462;28;20036;-73
2023/06/06 08:29:34;;;;;;;9.55;3.50;;;;;;;;;;5042541;28;20163;-74
2023/06/06 08:32:02;;;;;;;9.82;4.97;;;;;;;;;;5045248;28;20048;-74
2023/06/06 08:34:28;;;;;;;8.30;3.28;;;;;;;;;;5048928;28;20089;-74
2023/06/06 08:36:54;;;;;;;8.32;3.75;;;;;;;;;;5048635;28;20029;-73
2023/06/06 08:39:23;;;;;;;9.40;4.30;;;;;;;;;;5046367;28;20079;-74
2023/06/06 08:41:53;;;;;;;8.90;3.15;;;;;;;;;;5045106;28;20071;-73
2023/06/06 08:44:21;;;;;;;7.70;3.10;;;;;;;;;;5047872;28;20028;-73
2023/06/06 08:46:48;;;;;;;8.45;4.63;;;;;;;;;;5046906;28;20067;-74
2023/06/06 08:49:17;;;;;;;8.38;5.00;;;;;;;;;;5028328;28;20057;-74
2023/06/06 08:51:43;;;;;;;12.67;6.23;;;;;;;;;;5050186;28;20025;-73
2023/06/06 08:54:09;;;;;;;10.88;3.95;;;;;;;;;;5049454;28;20349;-75
2023/06/06 08:56:37;;;;;;;9.60;4.60;;;;;;;;;;5049302;28;20773;-73
2023/06/06 08:59:03;;;;;;;5.70;2.67;;;;;;;;;;5050409;28;20116;-73
2023/06/06 09:01:30;;;;;;;7.22;2.58;;;;;;;;;;5047690;28;20032;-74
2023/06/06 09:03:57;;;;;;;7.50;4.05;;;;;;;;;;5050598;28;20029;-72
2023/06/06 09:06:24;;;;;;;5.00;2.63;;;;;;;;;;5049661;28;20025;-73
2023/06/06 09:08:50;;;;;;;7.88;3.05;;;;;;;;;;5048864;28;20497;-74
2023/06/06 09:11:17;;;;;;;9.13;5.22;;;;;;;;;;5048487;28;20102;-73
2023/06/06 09:13:44;;;;;;;8.13;4.30;;;;;;;;;;5048956;28;20041;-74
2023/06/06 09:16:10;;;;;;;11.48;5.43;;;;;;;;;;5048968;28;20017;-74
2023/06/06 09:18:38;;;;;;;6.00;2.85;;;;;;;;;;5049322;28;20037;-75
2023/06/06 09:21:04;;;;;;;9.20;4.07;;;;;;;;;;5048696;28;20025;-74
2023/06/06 09:23:31;;;;;;;6.95;2.92;;;;;;;;;;5048860;28;20052;-75
2023/06/06 09:25:57;;;;;;;7.55;4.65;;;;;;;;;;5049864;28;20052;-73
2023/06/06 09:28:40;;;;;;;10.15;3.60;;;;;;;;;;5050897;28;20021;-74
2023/06/06 09:31:25;;;;;;;7.00;3.90;;;;;;;;;;5051061;28;20040;-74
2023/06/06 09:33:53;;;;;;;8.68;4.70;;;;;;;;;;5047836;28;20041;-74
2023/06/06 09:36:21;;;;;;;6.47;3.47;;;;;;;;;;5041608;28;20398;-74
2023/06/06 09:38:47;;;;;;;7.45;3.33;;;;;;;;;;5047656;28;20119;-74
2023/06/06 09:41:13;;;;;;;8.65;3.92;;;;;;;;;;5048455;28;20040;-74
2023/06/06 09:43:39;;;;;;;6.85;3.75;;;;;;;;;;5048668;28;20021;-75
2023/06/06 09:46:05;;;;;;;6.85;3.35;;;;;;;;;;5048870;28;20053;-74
2023/06/06 09:48:32;;;;;;;6.28;3.13;;;;;;;;;;5051075;28;20032;-74
2023/06/06 09:50:58;;;;;;;8.95;3.65;;;;;;;;;;5051428;28;20063;-74
2023/06/06 09:53:28;;;;;;;6.70;3.55;;;;;;;;;;5051170;28;20406;-73
2023/06/06 09:55:55;;;;;;;;;;;;;;;;;;5052305;28;20025;-73
2023/06/06 09:58:22;;;;;;;9.60;4.00;;;;;;;;;;5052510;28;19959;-74
2023/06/06 10:00:50;;;;;;;8.55;4.50;;;;;;;;;;5053687;28;20111;-74
2023/06/06 10:03:20;;;;;;;7.55;3.13;;;;;;;;;;5052077;28;20025;-74
2023/06/06 10:05:47;;;;;;;12.07;4.97;;;;;;;;;;5052691;28;20029;-74
2023/06/06 10:08:14;;;;;;;14.48;6.30;;;;;;;;;;5053805;28;20888;-74
2023/06/06 10:10:43;;;;;;;7.50;4.25;;;;;;;;;;5053476;28;20497;-74
2023/06/06 10:13:12;;;;;;;4.32;2.40;;;;;;;;;;5052719;28;20043;-73
2023/06/06 10:15:38;;;;;;;7.05;3.30;;;;;;;;;;5050513;28;20025;-73
2023/06/06 10:18:05;;;;;;;9.02;4.68;;;;;;;;;;5050148;28;20125;-74
2023/06/06 10:20:32;;;;;;;10.93;4.50;;;;;;;;;;5049202;28;20052;-74
2023/06/06 10:23:01;;;;;;;13.77;5.28;;;;;;;;;;5050448;28;20036;-73
2023/06/06 10:25:27;;;;;;;16.90;5.28;;;;;;;;;;5033352;28;20402;-73
2023/06/06 10:28:07;;;;;;;16.30;3.28;;;;;;;;;;5046106;28;20063;-74
2023/06/06 10:30:42;;;;;;;11.88;4.53;;;;;;;;;;5037270;28;20030;-73
2023/06/06 10:33:23;;;;;;;28.92;4.97;;;;;;;;;;5050987;28;20033;-74
2023/06/06 10:35:58;;;;;;;10.23;4.95;;;;;;;;;;5050651;28;20033;-73
2023/06/06 10:38:24;;;;;;;10.63;4.57;;;;;;;;;;5050872;28;20025;-73
2023/06/06 10:40:51;;;;;;;14.10;4.32;;;;;;;;;;5044348;28;20148;-74
2023/06/06 10:43:37;;;;;;;9.15;3.92;;;;;;;;;;5050172;28;20063;-74
2023/06/06 10:46:03;;;;;;;10.77;3.63;;;;;;;;;;5047752;28;20032;-73
2023/06/06 10:48:39;;;;;;;15.13;3.53;;;;;;;;;;5050174;28;20064;-74
2023/06/06 10:51:06;;;;;;;13.48;3.80;;;;;;;;;;5047300;28;20527;-72
2023/06/06 10:53:32;;;;;;;12.40;5.28;;;;;;;;;;5053441;28;20195;-73
2023/06/06 10:55:59;;;;;;;10.02;3.03;;;;;;;;;;5050922;28;20044;-74
2023/06/06 10:58:34;;;;;;;10.32;5.20;;;;;;;;;;5048149;28;20477;-74
2023/06/06 11:01:02;;;;;;;7.85;3.47;;;;;;;;;;5049078;28;20120;-74
2023/06/06 11:03:32;;;;;;;7.57;3.30;;;;;;;;;;5050285;28;20105;-72
2023/06/06 11:05:58;;;;;;;;;;;;;;;;;;5032339;28;20082;-73
2023/06/06 11:08:33;;;;;;;7.80;2.88;;;;;;;;;;5050873;28;19950;-74
2023/06/06 11:11:17;;;;;;;7.68;3.50;;;;;;;;;;5049914;28;20029;-74
2023/06/06 11:14:10;;;;;;;8.73;4.35;;;;;;;;;;5049956;28;20041;-75
2023/06/06 11:16:43;;;;;;;4.68;2.50;;;;;;;;;;5035909;28;20037;-73
2023/06/06 11:19:19;;;;;;;8.50;3.13;;;;;;;;;;5050518;28;20083;-74
2023/06/06 11:21:46;;;;;;;6.38;3.55;;;;;;;;;;5028613;28;20029;-73
2023/06/06 11:24:14;;;;;;;10.65;4.32;;;;;;;;;;5048400;28;20024;-74
2023/06/06 11:26:41;;;;;;;8.20;3.72;;;;;;;;;;5050173;28;20140;-73
2023/06/06 11:29:08;;;;;;;9.18;2.65;;;;;;;;;;5048735;28;20029;-75
2023/06/06 11:31:35;;;;;;;10.32;3.13;;;;;;;;;;5049848;28;20033;-74
2023/06/06 11:34:06;;;;;;;10.93;4.65;;;;;;;;;;5047948;28;20087;-74
2023/06/06 11:36:33;;;;;;;10.57;4.40;;;;;;;;;;5049859;28;20032;-75
2023/06/06 11:39:00;;;;;;;7.60;3.15;;;;;;;;;;5045615;28;20383;-73
2023/06/06 11:41:28;;;;;;;6.40;2.83;;;;;;;;;;5048996;28;20025;-74
2023/06/06 11:43:55;;;;;;;6.68;3.42;;;;;;;;;;5047873;28;20073;-74
2023/06/06 11:46:21;;;;;;;6.22;3.70;;;;;;;;;;5047669;28;20542;-73
2023/06/06 11:48:48;;;;;;;10.65;4.20;;;;;;;;;;5047507;28;20506;-74
2023/06/06 11:51:14;;;;;;;5.97;2.40;;;;;;;;;;5047528;28;20025;-74
2023/06/06 11:53:41;;;;;;;10.35;5.18;;;;;;;;;;5047725;28;20633;-75
2023/06/06 11:56:07;;;;;;;8.80;3.40;;;;;;;;;;5047818;28;20401;-74
2023/06/06 11:58:39;;;;;;;6.35;2.65;;;;;;;;;;5047402;28;20029;-73
2023/06/06 12:01:07;;;;;;;7.85;3.13;;;;;;;;;;5047819;28;20500;-73
2023/06/06 12:03:40;;;;;;;5.55;3.22;;;;;;;;;;5049708;28;20053;-74
2023/06/06 12:06:06;;;;;;;10.68;4.43;;;;;;;;;;5048952;28;20029;-73
2023/06/06 12:08:33;;;;;;;8.95;3.90;;;;;;;;;;5048907;28;20051;-73
2023/06/06 12:11:19;;;;;;;5.40;2.50;;;;;;;;;;5048783;28;20031;-74
2023/06/06 12:13:45;;;;;;;6.93;3.78;;;;;;;;;;5048861;28;20078;-74
2023/06/06 12:16:11;;;;;;;6.35;2.60;;;;;;;;;;5049023;28;20033;-73
2023/06/06 12:18:46;;;;;;;7.88;3.65;;;;;;;;;;5049598;28;20065;-73
2023/06/06 12:21:15;;;;;;;6.82;2.90;;;;;;;;;;5048651;28;20029;-73
2023/06/06 12:23:43;;;;;;;5.55;1.90;;;;;;;;;;5049629;28;20036;-74
2023/06/06 12:26:12;;;;;;;10.23;4.47;;;;;;;;;;5049569;28;20139;-74
2023/06/06 12:28:54;;;;;;;12.18;4.43;;;;;;;;;;5049327;28;20689;-74
2023/06/06 12:31:21;;;;;;;5.85;2.38;;;;;;;;;;5049412;28;20045;-74
2023/06/06 12:33:47;;;;;;;4.65;2.50;;;;;;;;;;5048899;28;20029;-74
2023/06/06 12:36:17;;;;;;;6.20;2.67;;;;;;;;;;5047872;28;20024;-74
2023/06/06 12:38:45;;;;;;;4.90;2.17;;;;;;;;;;5049197;28;20033;-74
2023/06/06 12:41:11;;;;;;;7.07;2.97;;;;;;;;;;5049158;28;20075;-73
2023/06/06 12:43:37;;;;;;;5.63;2.80;;;;;;;;;;5049657;28;20040;-74
2023/06/06 12:46:03;;;;;;;6.18;2.45;;;;;;;;;;5050557;28;20029;-74
2023/06/06 12:48:29;;;;;;;7.15;3.70;;;;;;;;;;5051292;28;20057;-73
2023/06/06 12:50:55;;;;;;;6.65;3.35;;;;;;;;;;5051039;28;20049;-73
2023/06/06 12:53:21;;;;;;;5.60;3.08;;;;;;;;;;5050859;28;20109;-73
2023/06/06 12:55:47;;;;;;;10.40;3.42;;;;;;;;;;5050725;28;20060;-75
2023/06/06 12:58:13;;;;;;;6.60;3.00;;;;;;;;;;5050700;28;20609;-75
2023/06/06 13:00:39;;;;;;;5.70;2.90;;;;;;;;;;5050569;28;20021;-73
2023/06/06 13:03:09;;;;;;;8.20;2.40;;;;;;;;;;5051513;28;20025;-73
2023/06/06 13:05:35;;;;;;;;;;;;;;;;;;5052585;28;20028;-73
2023/06/06 13:08:01;;;;;;;6.75;2.85;;;;;;;;;;5051849;28;20340;-73
2023/06/06 13:10:28;;;;;;;7.15;3.20;;;;;;;;;;5050562;28;20044;-75
2023/06/06 13:12:54;;;;;;;7.32;3.83;;;;;;;;;;5052096;28;20037;-74
2023/06/06 13:15:20;;;;;;;9.25;3.83;;;;;;;;;;5050947;28;20028;-74
2023/06/06 13:17:46;;;;;;;9.38;3.30;;;;;;;;;;5053702;28;20017;-73
2023/06/06 13:20:14;;;;;;;6.32;2.80;;;;;;;;;;5052772;28;20025;-73
2023/06/06 13:22:41;;;;;;;7.85;2.78;;;;;;;;;;5048803;28;20029;-73
2023/06/06 13:25:08;;;;;;;6.22;2.45;;;;;;;;;;5050843;28;20025;-73
2023/06/06 13:27:34;;;;;;;4.63;2.38;;;;;;;;;;5055591;28;20045;-74
2023/06/06 13:30:00;;;;;;;9.25;4.70;;;;;;;;;;5055812;28;20084;-73
2023/06/06 13:32:26;;;;;;;5.63;2.85;;;;;;;;;;5055989;28;20036;-74
2023/06/06 13:34:52;;;;;;;5.53;2.78;;;;;;;;;;5055792;28;20079;-73
2023/06/06 13:37:18;;;;;;;4.72;2.08;;;;;;;;;;5054519;28;20079;-73
2023/06/06 13:39:45;;;;;;;5.03;2.63;;;;;;;;;;5056241;28;20025;-74
2023/06/06 13:42:11;;;;;;;8.30;3.78;;;;;;;;;;5052478;28;20044;-74
2023/06/06 13:44:37;;;;;;;6.65;2.42;;;;;;;;;;5048118;28;20061;-73
2023/06/06 13:47:03;;;;;;;5.45;2.35;;;;;;;;;;5050279;28;20045;-75
2023/06/06 13:49:29;;;;;;;6.95;2.50;;;;;;;;;;5049403;28;20562;-75
2023/06/06 13:51:55;;;;;;;6.35;3.00;;;;;;;;;;5050757;28;20033;-74
2023/06/06 13:54:22;;;;;;;5.97;2.90;;;;;;;;;;5046171;28;20091;-75
2023/06/06 13:56:48;;;;;;;5.72;2.88;;;;;;;;;;5054928;28;20029;-73
2023/06/06 13:59:15;;;;;;;6.25;2.85;;;;;;;;;;5048184;28;20485;-74
2023/06/06 14:01:46;;;;;;;5.88;2.35;;;;;;;;;;5053854;28;20418;-73
2023/06/06 14:04:12;;;;;;;4.65;2.80;;;;;;;;;;5046492;28;20036;-74
2023/06/06 14:06:38;;;;;;;6.07;2.65;;;;;;;;;;5053538;28;20028;-74
2023/06/06 14:09:08;;;;;;;4.53;2.38;;;;;;;;;;5044532;28;20029;-74
2023/06/06 14:11:34;;;;;;;6.97;2.88;;;;;;;;;;5051051;28;20032;-74
2023/06/06 14:14:01;;;;;;;4.70;2.60;;;;;;;;;;5051457;28;20120;-73
2023/06/06 14:16:27;;;;;;;5.47;3.03;;;;;;;;;;5049330;28;20071;-73
2023/06/06 14:18:54;;;;;;;5.40;2.55;;;;;;;;;;5055165;28;20078;-74
2023/06/06 14:21:30;;;;;;;6.63;2.95;;;;;;;;;;5055752;28;20075;-73
2023/06/06 14:23:56;;;;;;;7.05;2.80;;;;;;;;;;5043395;28;20040;-74
2023/06/06 14:26:22;;;;;;;4.90;2.55;;;;;;;;;;5056701;28;20024;-74
2023/06/06 14:28:49;;;;;;;7.00;2.78;;;;;;;;;;5057163;28;20025;-74
2023/06/06 14:31:16;;;;;;;6.28;2.72;;;;;;;;;;5054888;28;20155;-74
2023/06/06 14:33:43;;;;;;;6.55;2.60;;;;;;;;;;5053754;28;20048;-73
2023/06/06 14:36:10;;;;;;;5.28;2.40;;;;;;;;;;5054679;28;20021;-74
2023/06/06 14:38:36;;;;;;;5.13;2.40;;;;;;;;;;5054568;28;20028;-74